EmpreSS Of The Seas — C6CM8 — position and weather

sailwx.info

Track history (hours):
 
Tides and Currents Weather Stations Pressure Air Temp Water Temp Dewpoint Dewpoint Depression Visibility Wind Speed Wind Dir Waves Ship Positions

EmpreSS Of The Seas

Last reported at 2018-Nov-04 23:23 UTC. Time now 2018-Nov-16 05:37 UTC.
Position N 25°31' W 079°55'.
Warning: this ship's position is 11 days out of date.

Length 211 m; draft 7.3 m.

Type: Passenger vessel. MMSI: 311000515.

Date/timePositionNaut miles runAvg speedWind from/ knotsBaromVisibWave heightAir tempDewpointWater temp
2018-Nov-04 23:23N 25°31' W 079°55'413.4
2018-Nov-04 23:03N 25°35' W 079°57'113.7
2018-Nov-04 23:00N 25°36' W 079°58'713.9
2018-Nov-04 22:31N 25°42' W 080°02'4 9.5
2018-Nov-04 22:03N 25°45' W 080°05'0 8.2
2018-Nov-04 22:00N 25°46' W 080°05'4 8.4
2018-Nov-04 21:30N 25°46' W 080°09'1 2.2
2018-Nov-04 20:59N 25°47' W 080°11'0 0.0
2018-Nov-04 20:29N 25°47' W 080°11'0 0.0
2018-Nov-04 20:02N 25°47' W 080°11'0 0.0
2018-Nov-04 19:59N 25°47' W 080°11'0 0.0
2018-Nov-04 19:29N 25°47' W 080°11'0 0.0
2018-Nov-04 19:02N 25°47' W 080°11'0 0.0
2018-Nov-04 18:59N 25°47' W 080°11'0 0.0
2018-Nov-04 18:29N 25°47' W 080°11'0 0.0
2018-Nov-04 18:02N 25°47' W 080°11'0 0.0
2018-Nov-04 17:59N 25°47' W 080°11'0 0.0
2018-Nov-04 17:29N 25°47' W 080°11'0 0.0
2018-Nov-04 16:59N 25°47' W 080°11'0 0.0
2018-Nov-04 16:29N 25°47' W 080°11'0 0.0
2018-Nov-04 16:02N 25°47' W 080°11'0 0.0
2018-Nov-04 15:59N 25°47' W 080°11'0 0.0
2018-Nov-04 15:20N 25°47' W 080°11'0 0.0
2018-Nov-04 15:02N 25°47' W 080°11'0 0.0
2018-Nov-04 14:56N 25°47' W 080°11'0 0.0
2018-Nov-04 14:26N 25°47' W 080°11'0 0.0
2018-Nov-04 14:02N 25°47' W 080°11'0 0.0
2018-Nov-04 13:59N 25°47' W 080°11'0 0.0
2018-Nov-04 13:29N 25°47' W 080°11'0 0.0
2018-Nov-04 13:02N 25°47' W 080°11'0 0.0
2018-Nov-04 12:59N 25°47' W 080°11'0 0.0
2018-Nov-04 12:26N 25°47' W 080°11'0 0.4
2018-Nov-04 12:03N 25°47' W 080°11'0 2.5
2018-Nov-04 12:01N 25°47' W 080°11'3 5.8
2018-Nov-04 11:30N 25°46' W 080°08'4 9.3
2018-Nov-04 11:03N 25°47' W 080°04'0 6.1
2018-Nov-04 11:01N 25°47' W 080°03'510.8
2018-Nov-04 10:30N 25°49' W 079°58'3 7.2
2018-Nov-04 10:03N 25°50' W 079°54'0 6.3
2018-Nov-04 10:00N 25°50' W 079°54'3 6.6
2018-Nov-04 09:30N 25°52' W 079°51'3 7.6
2018-Nov-04 09:03N 25°53' W 079°47'110.2
2018-Nov-04 09:00N 25°53' W 079°47'510.6
2018-Nov-04 08:30N 25°56' W 079°42'510.8
2018-Nov-04 08:03N 25°58' W 079°37'010.3
2018-Nov-04 08:00N 25°59' W 079°36'4 7.8
2018-Nov-04 07:30N 26°01' W 079°33'4 7.7
2018-Nov-04 07:02N 26°03' W 079°30'2 7.7
2018-Nov-04 06:47N 26°04' W 079°28'22 0.4
2018-Nov-02 03:47N 25°52' W 079°49'519.1
2018-Nov-02 03:30N 25°50' W 079°55'918.9
2018-Nov-02 03:03N 25°47' W 080°04'116.2
2018-Nov-02 03:00N 25°47' W 080°04'5 9.6
2018-Nov-02 02:30N 25°46' W 080°10'1 1.6
2018-Nov-02 01:52N 25°47' W 080°11'0 0.0
2018-Nov-02 01:22N 25°47' W 080°11'0 0.0
2018-Nov-02 00:58N 25°47' W 080°11'0 0.0
2018-Nov-02 00:55N 25°47' W 080°11'0 0.0
2018-Nov-02 00:34N 25°47' W 080°11'0 0.0
2018-Nov-02 00:28N 25°47' W 080°11'0 0.0
2018-Nov-02 00:01N 25°47' W 080°11'0 0.0
2018-Nov-01 23:58N 25°47' W 080°11'0 0.0
2018-Nov-01 23:25N 25°47' W 080°11'0 0.0
2018-Nov-01 22:58N 25°47' W 080°11'0 0.0
2018-Nov-01 22:25N 25°47' W 080°11'0 0.0
2018-Nov-01 22:01N 25°47' W 080°11'0 0.0
2018-Nov-01 21:58N 25°47' W 080°11'0 0.0
2018-Nov-01 21:28N 25°47' W 080°11'0 0.0
2018-Nov-01 21:01N 25°47' W 080°11'0 0.0
2018-Nov-01 20:58N 25°47' W 080°11'0 0.0
2018-Nov-01 20:28N 25°47' W 080°11'0 0.0
2018-Nov-01 20:01N 25°47' W 080°11'0 0.0
2018-Nov-01 19:58N 25°47' W 080°11'0 0.0
2018-Nov-01 19:28N 25°47' W 080°11'0 0.0
2018-Nov-01 19:01N 25°47' W 080°11'0 0.0
2018-Nov-01 18:58N 25°47' W 080°11'0 0.0
2018-Nov-01 18:28N 25°47' W 080°11'0 0.0
2018-Nov-01 18:01N 25°47' W 080°11'0 0.0
2018-Nov-01 17:58N 25°47' W 080°11'0 0.0
2018-Nov-01 17:28N 25°47' W 080°11'0 0.0
2018-Nov-01 17:01N 25°47' W 080°11'0 0.0
2018-Nov-01 16:58N 25°47' W 080°11'0 0.0
2018-Nov-01 16:28N 25°47' W 080°11'0 0.0
2018-Nov-01 16:01N 25°47' W 080°11'0 0.0
2018-Nov-01 15:58N 25°47' W 080°11'0 0.0
2018-Nov-01 15:28N 25°47' W 080°11'0 0.0
2018-Nov-01 15:01N 25°47' W 080°11'0 0.0
2018-Nov-01 14:55N 25°47' W 080°11'0 0.0
2018-Nov-01 14:28N 25°47' W 080°11'0 0.0
2018-Nov-01 13:58N 25°47' W 080°11'0 0.0
2018-Nov-01 13:22N 25°47' W 080°11'0 0.0
2018-Nov-01 13:01N 25°47' W 080°11'0 0.0
2018-Nov-01 12:58N 25°47' W 080°11'0 0.0
2018-Nov-01 12:22N 25°47' W 080°11'0 0.0
2018-Nov-01 11:58N 25°47' W 080°11'0 0.0
2018-Nov-01 11:25N 25°47' W 080°11'0 0.7
2018-Nov-01 11:03N 25°47' W 080°11'0 1.0
2018-Nov-01 11:01N 25°47' W 080°11'3 6.5
2018-Nov-01 10:30N 25°46' W 080°08'510.3
2018-Nov-01 10:03N 25°47' W 080°03'0 8.5
2018-Nov-01 10:00N 25°47' W 080°02'714.9
2018-Nov-01 09:31N 25°40' W 079°58'919.0
2018-Nov-01 09:04N 25°32' W 079°58'119.6
2018-Nov-01 09:00N 25°31' W 079°57'  
Track history (hours):
 
Tides and Currents Weather Stations Pressure Air Temp Water Temp Dewpoint Dewpoint Depression Visibility Wind Speed Wind Dir Waves Ship Positions

EmpreSS Of The Seas

Last reported at 2018-Nov-04 23:23 UTC. Time now 2018-Nov-16 05:37 UTC.
Position N 25°31' W 079°55'.
Warning: this ship's position is 11 days out of date.

Length 211 m; draft 7.3 m.

Type: Passenger vessel. MMSI: 311000515.

Date/timePositionNaut miles runAvg speedWind from/ knotsBaromVisibWave heightAir tempDewpointWater temp
2018-Nov-04 23:23N 25°31' W 079°55'413.4
2018-Nov-04 23:03N 25°35' W 079°57'113.7
2018-Nov-04 23:00N 25°36' W 079°58'713.9
2018-Nov-04 22:31N 25°42' W 080°02'4 9.5
2018-Nov-04 22:03N 25°45' W 080°05'0 8.2
2018-Nov-04 22:00N 25°46' W 080°05'4 8.4
2018-Nov-04 21:30N 25°46' W 080°09'1 2.2
2018-Nov-04 20:59N 25°47' W 080°11'0 0.0
2018-Nov-04 20:29N 25°47' W 080°11'0 0.0
2018-Nov-04 20:02N 25°47' W 080°11'0 0.0
2018-Nov-04 19:59N 25°47' W 080°11'0 0.0
2018-Nov-04 19:29N 25°47' W 080°11'0 0.0
2018-Nov-04 19:02N 25°47' W 080°11'0 0.0
2018-Nov-04 18:59N 25°47' W 080°11'0 0.0
2018-Nov-04 18:29N 25°47' W 080°11'0 0.0
2018-Nov-04 18:02N 25°47' W 080°11'0 0.0
2018-Nov-04 17:59N 25°47' W 080°11'0 0.0
2018-Nov-04 17:29N 25°47' W 080°11'0 0.0
2018-Nov-04 16:59N 25°47' W 080°11'0 0.0
2018-Nov-04 16:29N 25°47' W 080°11'0 0.0
2018-Nov-04 16:02N 25°47' W 080°11'0 0.0
2018-Nov-04 15:59N 25°47' W 080°11'0 0.0
2018-Nov-04 15:20N 25°47' W 080°11'0 0.0
2018-Nov-04 15:02N 25°47' W 080°11'0 0.0
2018-Nov-04 14:56N 25°47' W 080°11'0 0.0
2018-Nov-04 14:26N 25°47' W 080°11'0 0.0
2018-Nov-04 14:02N 25°47' W 080°11'0 0.0
2018-Nov-04 13:59N 25°47' W 080°11'0 0.0
2018-Nov-04 13:29N 25°47' W 080°11'0 0.0
2018-Nov-04 13:02N 25°47' W 080°11'0 0.0
2018-Nov-04 12:59N 25°47' W 080°11'0 0.0
2018-Nov-04 12:26N 25°47' W 080°11'0 0.4
2018-Nov-04 12:03N 25°47' W 080°11'0 2.5
2018-Nov-04 12:01N 25°47' W 080°11'3 5.8
2018-Nov-04 11:30N 25°46' W 080°08'4 9.3
2018-Nov-04 11:03N 25°47' W 080°04'0 6.1
2018-Nov-04 11:01N 25°47' W 080°03'510.8
2018-Nov-04 10:30N 25°49' W 079°58'3 7.2
2018-Nov-04 10:03N 25°50' W 079°54'0 6.3
2018-Nov-04 10:00N 25°50' W 079°54'3 6.6
2018-Nov-04 09:30N 25°52' W 079°51'3 7.6
2018-Nov-04 09:03N 25°53' W 079°47'110.2
2018-Nov-04 09:00N 25°53' W 079°47'510.6
2018-Nov-04 08:30N 25°56' W 079°42'510.8
2018-Nov-04 08:03N 25°58' W 079°37'010.3
2018-Nov-04 08:00N 25°59' W 079°36'4 7.8
2018-Nov-04 07:30N 26°01' W 079°33'4 7.7
2018-Nov-04 07:02N 26°03' W 079°30'2 7.7
2018-Nov-04 06:47N 26°04' W 079°28'22 0.4
2018-Nov-02 03:47N 25°52' W 079°49'519.1
2018-Nov-02 03:30N 25°50' W 079°55'918.9
2018-Nov-02 03:03N 25°47' W 080°04'116.2
2018-Nov-02 03:00N 25°47' W 080°04'5 9.6
2018-Nov-02 02:30N 25°46' W 080°10'1 1.6
2018-Nov-02 01:52N 25°47' W 080°11'0 0.0
2018-Nov-02 01:22N 25°47' W 080°11'0 0.0
2018-Nov-02 00:58N 25°47' W 080°11'0 0.0
2018-Nov-02 00:55N 25°47' W 080°11'0 0.0
2018-Nov-02 00:34N 25°47' W 080°11'0 0.0
2018-Nov-02 00:28N 25°47' W 080°11'0 0.0
2018-Nov-02 00:01N 25°47' W 080°11'0 0.0
2018-Nov-01 23:58N 25°47' W 080°11'0 0.0
2018-Nov-01 23:25N 25°47' W 080°11'0 0.0
2018-Nov-01 22:58N 25°47' W 080°11'0 0.0
2018-Nov-01 22:25N 25°47' W 080°11'0 0.0
2018-Nov-01 22:01N 25°47' W 080°11'0 0.0
2018-Nov-01 21:58N 25°47' W 080°11'0 0.0
2018-Nov-01 21:28N 25°47' W 080°11'0 0.0
2018-Nov-01 21:01N 25°47' W 080°11'0 0.0
2018-Nov-01 20:58N 25°47' W 080°11'0 0.0
2018-Nov-01 20:28N 25°47' W 080°11'0 0.0
2018-Nov-01 20:01N 25°47' W 080°11'0 0.0
2018-Nov-01 19:58N 25°47' W 080°11'0 0.0
2018-Nov-01 19:28N 25°47' W 080°11'0 0.0
2018-Nov-01 19:01N 25°47' W 080°11'0 0.0
2018-Nov-01 18:58N 25°47' W 080°11'0 0.0
2018-Nov-01 18:28N 25°47' W 080°11'0 0.0
2018-Nov-01 18:01N 25°47' W 080°11'0 0.0
2018-Nov-01 17:58N 25°47' W 080°11'0 0.0
2018-Nov-01 17:28N 25°47' W 080°11'0 0.0
2018-Nov-01 17:01N 25°47' W 080°11'0 0.0
2018-Nov-01 16:58N 25°47' W 080°11'0 0.0
2018-Nov-01 16:28N 25°47' W 080°11'0 0.0
2018-Nov-01 16:01N 25°47' W 080°11'0 0.0
2018-Nov-01 15:58N 25°47' W 080°11'0 0.0
2018-Nov-01 15:28N 25°47' W 080°11'0 0.0
2018-Nov-01 15:01N 25°47' W 080°11'0 0.0
2018-Nov-01 14:55N 25°47' W 080°11'0 0.0
2018-Nov-01 14:28N 25°47' W 080°11'0 0.0
2018-Nov-01 13:58N 25°47' W 080°11'0 0.0
2018-Nov-01 13:22N 25°47' W 080°11'0 0.0
2018-Nov-01 13:01N 25°47' W 080°11'0 0.0
2018-Nov-01 12:58N 25°47' W 080°11'0 0.0
2018-Nov-01 12:22N 25°47' W 080°11'0 0.0
2018-Nov-01 11:58N 25°47' W 080°11'0 0.0
2018-Nov-01 11:25N 25°47' W 080°11'0 0.7
2018-Nov-01 11:03N 25°47' W 080°11'0 1.0
2018-Nov-01 11:01N 25°47' W 080°11'3 6.5
2018-Nov-01 10:30N 25°46' W 080°08'510.3
2018-Nov-01 10:03N 25°47' W 080°03'0 8.5
2018-Nov-01 10:00N 25°47' W 080°02'714.9
2018-Nov-01 09:31N 25°40' W 079°58'919.0
2018-Nov-01 09:04N 25°32' W 079°58'119.6
2018-Nov-01 09:00N 25°31' W 079°57'  

Dump ship's entire track history